sensor_id;sensor_type;location;lat;lon;timestamp;pressure;altitude;pressure_sealevel;temperature;humidity
38880;BME280;25887;30.194;-97.880;2023-04-10T00:00:48;98921.84;;;23.44;53.13
38880;BME280;25887;30.194;-97.880;2023-04-10T00:03:22;98918.41;;;23.42;53.10
38880;BME280;25887;30.194;-97.880;2023-04-10T00:05:49;98928.06;;;23.41;53.21
38880;BME280;25887;30.194;-97.880;2023-04-10T00:08:15;98924.72;;;23.38;53.59
38880;BME280;25887;30.194;-97.880;2023-04-10T00:10:41;98930.03;;;23.36;53.66
38880;BME280;25887;30.194;-97.880;2023-04-10T00:13:07;98931.81;;;23.35;53.51
38880;BME280;25887;30.194;-97.880;2023-04-10T00:15:34;98933.59;;;23.35;53.57
38880;BME280;25887;30.194;-97.880;2023-04-10T00:18:00;98933.69;;;23.32;53.28
38880;BME280;25887;30.194;-97.880;2023-04-10T00:20:26;98932.00;;;23.31;53.56
38880;BME280;25887;30.194;-97.880;2023-04-10T00:22:52;98931.22;;;23.29;53.67
38880;BME280;25887;30.194;-97.880;2023-04-10T00:25:19;98933.09;;;23.25;53.48
38880;BME280;25887;30.194;-97.880;2023-04-10T00:27:47;98927.94;;;23.24;53.84
38880;BME280;25887;30.194;-97.880;2023-04-10T00:30:14;98937.56;;;23.23;53.85
38880;BME280;25887;30.194;-97.880;2023-04-10T00:32:42;98940.31;;;23.20;53.70
38880;BME280;25887;30.194;-97.880;2023-04-10T00:35:08;98937.75;;;23.19;53.59
38880;BME280;25887;30.194;-97.880;2023-04-10T00:37:35;98944.84;;;23.17;53.97
38880;BME280;25887;30.194;-97.880;2023-04-10T00:40:01;98948.44;;;23.14;53.88
38880;BME280;25887;30.194;-97.880;2023-04-10T00:42:29;98968.63;;;23.12;54.01
38880;BME280;25887;30.194;-97.880;2023-04-10T00:44:55;98963.50;;;23.09;53.93
38880;BME280;25887;30.194;-97.880;2023-04-10T00:47:21;98974.91;;;23.08;53.93
38880;BME280;25887;30.194;-97.880;2023-04-10T00:49:47;98977.66;;;23.05;54.06
38880;BME280;25887;30.194;-97.880;2023-04-10T00:52:14;98978.59;;;23.04;53.85
38880;BME280;25887;30.194;-97.880;2023-04-10T00:54:40;98983.00;;;23.02;54.24
38880;BME280;25887;30.194;-97.880;2023-04-10T00:57:06;98982.31;;;22.98;54.06
38880;BME280;25887;30.194;-97.880;2023-04-10T00:59:33;98986.75;;;22.96;54.26
38880;BME280;25887;30.194;-97.880;2023-04-10T01:02:02;98990.28;;;22.95;54.25
38880;BME280;25887;30.194;-97.880;2023-04-10T01:04:29;98993.88;;;22.93;54.22
38880;BME280;25887;30.194;-97.880;2023-04-10T01:15:14;98994.28;;;22.82;54.40
38880;BME280;25887;30.194;-97.880;2023-04-10T01:18:01;98997.00;;;22.79;54.38
38880;BME280;25887;30.194;-97.880;2023-04-10T01:20:32;99007.63;;;22.76;54.58
38880;BME280;25887;30.194;-97.880;2023-04-10T01:25:49;99024.31;;;22.73;54.37
38880;BME280;25887;30.194;-97.880;2023-04-10T01:30:52;99034.06;;;22.70;54.62
38880;BME280;25887;30.194;-97.880;2023-04-10T01:33:21;99031.50;;;22.68;54.81
38880;BME280;25887;30.194;-97.880;2023-04-10T01:35:57;99029.78;;;22.67;54.48
38880;BME280;25887;30.194;-97.880;2023-04-10T01:38:27;99027.28;;;22.64;54.52
38880;BME280;25887;30.194;-97.880;2023-04-10T01:40:55;99028.19;;;22.63;55.06
38880;BME280;25887;30.194;-97.880;2023-04-10T01:43:25;99030.03;;;22.61;54.54
38880;BME280;25887;30.194;-97.880;2023-04-10T01:45:52;99028.31;;;22.60;54.53
38880;BME280;25887;30.194;-97.880;2023-04-10T01:48:19;99028.38;;;22.59;54.83
38880;BME280;25887;30.194;-97.880;2023-04-10T01:50:47;99043.25;;;22.58;55.04
38880;BME280;25887;30.194;-97.880;2023-04-10T01:53:14;99038.09;;;22.55;55.00
38880;BME280;25887;30.194;-97.880;2023-04-10T01:55:41;99042.56;;;22.53;54.85
38880;BME280;25887;30.194;-97.880;2023-04-10T01:58:08;99056.56;;;22.52;55.00
38880;BME280;25887;30.194;-97.880;2023-04-10T02:00:42;99053.16;;;22.50;54.98
38880;BME280;25887;30.194;-97.880;2023-04-10T02:03:11;99044.56;;;22.46;55.06
38880;BME280;25887;30.194;-97.880;2023-04-10T02:08:41;99040.34;;;22.42;55.07
38880;BME280;25887;30.194;-97.880;2023-04-10T02:11:21;99051.78;;;22.40;55.27
38880;BME280;25887;30.194;-97.880;2023-04-10T02:13:50;99055.44;;;22.36;55.16
38880;BME280;25887;30.194;-97.880;2023-04-10T02:16:21;99059.88;;;22.34;55.10
38880;BME280;25887;30.194;-97.880;2023-04-10T02:18:49;99066.84;;;22.33;55.32
38880;BME280;25887;30.194;-97.880;2023-04-10T02:21:16;99066.97;;;22.30;55.22
38880;BME280;25887;30.194;-97.880;2023-04-10T02:23:43;99076.59;;;22.30;55.31
38880;BME280;25887;30.194;-97.880;2023-04-10T02:26:09;99075.88;;;22.26;55.17
38880;BME280;25887;30.194;-97.880;2023-04-10T02:28:38;99077.66;;;22.24;55.39
38880;BME280;25887;30.194;-97.880;2023-04-10T02:31:05;99076.09;;;22.20;55.45
38880;BME280;25887;30.194;-97.880;2023-04-10T02:33:31;99069.19;;;22.17;55.39
38880;BME280;25887;30.194;-97.880;2023-04-10T02:35:59;99077.16;;;22.14;55.35
38880;BME280;25887;30.194;-97.880;2023-04-10T02:38:26;99076.44;;;22.09;55.46
38880;BME280;25887;30.194;-97.880;2023-04-10T02:40:52;99072.22;;;22.05;55.81
38880;BME280;25887;30.194;-97.880;2023-04-10T02:43:18;99081.06;;;22.01;55.46
38880;BME280;25887;30.194;-97.880;2023-04-10T02:45:44;99081.19;;;21.98;55.79
38880;BME280;25887;30.194;-97.880;2023-04-10T02:48:11;99084.81;;;21.94;55.57
38880;BME280;25887;30.194;-97.880;2023-04-10T02:50:37;99094.59;;;21.89;55.83
38880;BME280;25887;30.194;-97.880;2023-04-10T02:53:04;99096.44;;;21.85;55.88
38880;BME280;25887;30.194;-97.880;2023-04-10T02:55:30;99102.66;;;21.83;55.98
38880;BME280;25887;30.194;-97.880;2023-04-10T02:57:57;99111.41;;;21.82;56.15
38880;BME280;25887;30.194;-97.880;2023-04-10T03:00:23;99119.25;;;21.82;55.78
38880;BME280;25887;30.194;-97.880;2023-04-10T03:02:49;99121.88;;;21.82;55.83
38880;BME280;25887;30.194;-97.880;2023-04-10T03:05:15;99123.63;;;21.81;55.93
38880;BME280;25887;30.194;-97.880;2023-04-10T03:07:42;99125.41;;;21.81;55.94
38880;BME280;25887;30.194;-97.880;2023-04-10T03:10:08;99134.19;;;21.78;56.14
38880;BME280;25887;30.194;-97.880;2023-04-10T03:12:34;99142.88;;;21.79;55.79
38880;BME280;25887;30.194;-97.880;2023-04-10T03:15:01;99142.88;;;21.79;56.25
38880;BME280;25887;30.194;-97.880;2023-04-10T03:17:27;99142.94;;;21.77;56.12
38880;BME280;25887;30.194;-97.880;2023-04-10T03:19:53;99143.00;;;21.76;56.28
38880;BME280;25887;30.194;-97.880;2023-04-10T03:22:20;99157.84;;;21.75;56.17
38880;BME280;25887;30.194;-97.880;2023-04-10T03:24:46;99164.88;;;21.73;56.46
38880;BME280;25887;30.194;-97.880;2023-04-10T03:27:13;99163.19;;;21.70;56.11
38880;BME280;25887;30.194;-97.880;2023-04-10T03:29:39;99159.66;;;21.73;56.44
38880;BME280;25887;30.194;-97.880;2023-04-10T03:32:05;99155.34;;;21.70;56.48
38880;BME280;25887;30.194;-97.880;2023-04-10T03:34:31;99144.03;;;21.70;56.30
38880;BME280;25887;30.194;-97.880;2023-04-10T03:36:57;99146.72;;;21.68;56.22
38880;BME280;25887;30.194;-97.880;2023-04-10T03:39:24;99136.38;;;21.65;56.31
38880;BME280;25887;30.194;-97.880;2023-04-10T03:41:50;99134.66;;;21.64;56.47
38880;BME280;25887;30.194;-97.880;2023-04-10T03:44:16;99139.03;;;21.64;56.65
38880;BME280;25887;30.194;-97.880;2023-04-10T03:46:43;99134.75;;;21.61;56.62
38880;BME280;25887;30.194;-97.880;2023-04-10T03:49:09;99133.03;;;21.60;56.69
38880;BME280;25887;30.194;-97.880;2023-04-10T03:51:35;99128.72;;;21.59;56.50
38880;BME280;25887;30.194;-97.880;2023-04-10T03:54:02;99127.00;;;21.58;56.67
38880;BME280;25887;30.194;-97.880;2023-04-10T03:56:28;99129.63;;;21.58;56.52
38880;BME280;25887;30.194;-97.880;2023-04-10T03:58:54;99118.38;;;21.56;56.75
38880;BME280;25887;30.194;-97.880;2023-04-10T04:01:21;99118.38;;;21.55;56.76
38880;BME280;25887;30.194;-97.880;2023-04-10T04:03:47;99124.59;;;21.52;56.79
38880;BME280;25887;30.194;-97.880;2023-04-10T04:06:13;99132.50;;;21.51;56.79
38880;BME280;25887;30.194;-97.880;2023-04-10T04:08:39;99128.16;;;21.50;56.68
38880;BME280;25887;30.194;-97.880;2023-04-10T04:11:06;99133.41;;;21.50;56.54
38880;BME280;25887;30.194;-97.880;2023-04-10T04:13:32;99128.22;;;21.48;56.59
38880;BME280;25887;30.194;-97.880;2023-04-10T04:15:58;99131.63;;;21.50;56.76
38880;BME280;25887;30.194;-97.880;2023-04-10T04:18:24;99119.47;;;21.49;56.58
38880;BME280;25887;30.194;-97.880;2023-04-10T04:20:51;99112.53;;;21.48;56.61
38880;BME280;25887;30.194;-97.880;2023-04-10T04:23:17;99122.09;;;21.48;56.65
38880;BME280;25887;30.194;-97.880;2023-04-10T04:25:43;99121.31;;;21.46;56.78
38880;BME280;25887;30.194;-97.880;2023-04-10T04:28:09;99125.63;;;21.47;57.00
38880;BME280;25887;30.194;-97.880;2023-04-10T04:30:38;99116.13;;;21.44;56.62
38880;BME280;25887;30.194;-97.880;2023-04-10T04:33:04;99114.44;;;21.43;56.72
38880;BME280;25887;30.194;-97.880;2023-04-10T04:35:30;99103.19;;;21.41;56.76
38880;BME280;25887;30.194;-97.880;2023-04-10T04:40:22;99118.16;;;21.36;56.75
38880;BME280;25887;30.194;-97.880;2023-04-10T04:42:48;99112.19;;;21.31;57.11
38880;BME280;25887;30.194;-97.880;2023-04-10T04:45:14;99107.88;;;21.30;57.02
38880;BME280;25887;30.194;-97.880;2023-04-10T04:47:41;99101.88;;;21.26;57.14
38880;BME280;25887;30.194;-97.880;2023-04-10T04:50:07;99108.03;;;21.24;57.12
38880;BME280;25887;30.194;-97.880;2023-04-10T04:52:34;99119.41;;;21.23;56.94
38880;BME280;25887;30.194;-97.880;2023-04-10T04:55:00;99118.59;;;21.21;57.02
38880;BME280;25887;30.194;-97.880;2023-04-10T04:57:28;99121.22;;;21.21;57.25
38880;BME280;25887;30.194;-97.880;2023-04-10T04:59:54;99119.56;;;21.17;57.10
38880;BME280;25887;30.194;-97.880;2023-04-10T05:02:20;99126.66;;;21.13;57.20
38880;BME280;25887;30.194;-97.880;2023-04-10T05:04:47;99137.25;;;21.08;57.21
38880;BME280;25887;30.194;-97.880;2023-04-10T05:07:14;99126.91;;;21.05;57.37
38880;BME280;25887;30.194;-97.880;2023-04-10T05:09:40;99133.16;;;21.01;57.34
38880;BME280;25887;30.194;-97.880;2023-04-10T05:12:06;99137.53;;;20.99;57.15
38880;BME280;25887;30.194;-97.880;2023-04-10T05:14:32;99141.16;;;20.95;57.36
38880;BME280;25887;30.194;-97.880;2023-04-10T05:16:58;99131.69;;;20.91;57.37
38880;BME280;25887;30.194;-97.880;2023-04-10T05:19:25;99136.09;;;20.89;57.32
38880;BME280;25887;30.194;-97.880;2023-04-10T05:21:51;99135.38;;;20.85;57.42
38880;BME280;25887;30.194;-97.880;2023-04-10T05:24:17;99131.13;;;20.81;57.31
38880;BME280;25887;30.194;-97.880;2023-04-10T05:26:43;99140.81;;;20.78;57.53
38880;BME280;25887;30.194;-97.880;2023-04-10T05:29:09;99136.56;;;20.74;57.50
38880;BME280;25887;30.194;-97.880;2023-04-10T05:31:35;99136.72;;;20.68;57.44
38880;BME280;25887;30.194;-97.880;2023-04-10T05:34:01;99141.16;;;20.66;57.51
38880;BME280;25887;30.194;-97.880;2023-04-10T05:36:28;99132.63;;;20.59;57.49
38880;BME280;25887;30.194;-97.880;2023-04-10T05:38:54;99128.41;;;20.55;57.57
38880;BME280;25887;30.194;-97.880;2023-04-10T05:41:20;99124.97;;;20.53;57.76
38880;BME280;25887;30.194;-97.880;2023-04-10T05:43:47;99125.06;;;20.50;57.66
38880;BME280;25887;30.194;-97.880;2023-04-10T05:46:16;99123.44;;;20.46;57.79
38880;BME280;25887;30.194;-97.880;2023-04-10T05:48:42;99123.50;;;20.43;57.80
38880;BME280;25887;30.194;-97.880;2023-04-10T05:51:09;99116.63;;;20.39;57.78
38880;BME280;25887;30.194;-97.880;2023-04-10T05:53:35;99122.00;;;20.34;57.74
38880;BME280;25887;30.194;-97.880;2023-04-10T05:56:01;99120.34;;;20.30;57.83
38880;BME280;25887;30.194;-97.880;2023-04-10T05:58:27;99123.88;;;20.29;57.88
38880;BME280;25887;30.194;-97.880;2023-04-10T06:00:54;99135.31;;;20.25;57.92
38880;BME280;25887;30.194;-97.880;2023-04-10T06:03:21;99125.84;;;20.21;58.14
38880;BME280;25887;30.194;-97.880;2023-04-10T06:05:48;99132.91;;;20.17;58.05
38880;BME280;25887;30.194;-97.880;2023-04-10T06:08:14;99125.13;;;20.14;58.20
38880;BME280;25887;30.194;-97.880;2023-04-10T06:10:40;99126.09;;;20.12;57.90
38880;BME280;25887;30.194;-97.880;2023-04-10T06:13:06;99132.25;;;20.09;58.10
38880;BME280;25887;30.194;-97.880;2023-04-10T06:15:33;99129.69;;;20.06;57.90
38880;BME280;25887;30.194;-97.880;2023-04-10T06:17:59;99139.38;;;20.02;57.71
38880;BME280;25887;30.194;-97.880;2023-04-10T06:20:25;99141.19;;;20.00;58.02
38880;BME280;25887;30.194;-97.880;2023-04-10T06:22:52;99146.38;;;20.00;58.02
38880;BME280;25887;30.194;-97.880;2023-04-10T06:25:18;99141.22;;;19.97;58.24
38880;BME280;25887;30.194;-97.880;2023-04-10T06:27:44;99138.72;;;19.94;58.13
38880;BME280;25887;30.194;-97.880;2023-04-10T06:30:11;99144.84;;;19.93;58.24
38880;BME280;25887;30.194;-97.880;2023-04-10T06:32:37;99147.50;;;19.90;58.25
38880;BME280;25887;30.194;-97.880;2023-04-10T06:35:03;99147.53;;;19.89;58.36
38880;BME280;25887;30.194;-97.880;2023-04-10T06:37:30;99138.06;;;19.86;58.19
38880;BME280;25887;30.194;-97.880;2023-04-10T06:40:08;99147.66;;;19.84;58.26
38880;BME280;25887;30.194;-97.880;2023-04-10T06:42:35;99145.22;;;19.78;58.50
38880;BME280;25887;30.194;-97.880;2023-04-10T06:45:02;99147.00;;;19.76;58.39
38880;BME280;25887;30.194;-97.880;2023-04-10T06:47:29;99154.91;;;19.73;58.09
38880;BME280;25887;30.194;-97.880;2023-04-10T06:49:56;99165.41;;;19.70;58.31
38880;BME280;25887;30.194;-97.880;2023-04-10T06:52:23;99156.78;;;19.66;58.18
38880;BME280;25887;30.194;-97.880;2023-04-10T06:54:49;99149.97;;;19.62;58.42
38880;BME280;25887;30.194;-97.880;2023-04-10T06:57:15;99148.31;;;19.58;58.20
38880;BME280;25887;30.194;-97.880;2023-04-10T06:59:42;99144.91;;;19.55;58.20
38880;BME280;25887;30.194;-97.880;2023-04-10T07:02:08;99145.81;;;19.52;58.44
38880;BME280;25887;30.194;-97.880;2023-04-10T07:04:36;99130.28;;;19.47;58.39
38880;BME280;25887;30.194;-97.880;2023-04-10T07:07:02;99120.81;;;19.43;58.47
38880;BME280;25887;30.194;-97.880;2023-04-10T07:09:29;99126.06;;;19.42;58.42
38880;BME280;25887;30.194;-97.880;2023-04-10T07:11:57;99131.38;;;19.39;58.29
38880;BME280;25887;30.194;-97.880;2023-04-10T07:14:23;99127.97;;;19.35;58.45
38880;BME280;25887;30.194;-97.880;2023-04-10T07:16:50;99128.94;;;19.31;58.46
38880;BME280;25887;30.194;-97.880;2023-04-10T07:19:18;99129.84;;;19.29;58.30
38880;BME280;25887;30.194;-97.880;2023-04-10T07:21:46;99136.91;;;19.25;58.37
38880;BME280;25887;30.194;-97.880;2023-04-10T07:24:16;99135.25;;;19.21;58.44
38880;BME280;25887;30.194;-97.880;2023-04-10T07:26:45;99138.81;;;19.17;58.47
38880;BME280;25887;30.194;-97.880;2023-04-10T07:29:12;99148.44;;;19.15;58.11
38880;BME280;25887;30.194;-97.880;2023-04-10T07:31:39;99142.38;;;19.13;58.44
38880;BME280;25887;30.194;-97.880;2023-04-10T07:34:05;99139.00;;;19.09;58.08
38880;BME280;25887;30.194;-97.880;2023-04-10T07:36:31;99132.97;;;19.06;58.34
38880;BME280;25887;30.194;-97.880;2023-04-10T07:38:58;99121.84;;;19.01;58.54
38880;BME280;25887;30.194;-97.880;2023-04-10T07:41:24;99108.03;;;18.96;58.39
38880;BME280;25887;30.194;-97.880;2023-04-10T07:43:50;99117.59;;;18.95;58.40
38880;BME280;25887;30.194;-97.880;2023-04-10T07:46:16;99117.69;;;18.90;58.58
38880;BME280;25887;30.194;-97.880;2023-04-10T07:48:43;99126.44;;;18.88;58.41
38880;BME280;25887;30.194;-97.880;2023-04-10T07:51:09;99116.16;;;18.83;58.60
38880;BME280;25887;30.194;-97.880;2023-04-10T07:53:38;99125.66;;;18.83;58.49
38880;BME280;25887;30.194;-97.880;2023-04-10T07:56:06;99129.25;;;18.79;58.45
38880;BME280;25887;30.194;-97.880;2023-04-10T07:58:32;99124.13;;;18.76;58.52
38880;BME280;25887;30.194;-97.880;2023-04-10T08:01:00;99106.84;;;18.72;58.50
38880;BME280;25887;30.194;-97.880;2023-04-10T08:03:28;99099.97;;;18.69;58.37
38880;BME280;25887;30.194;-97.880;2023-04-10T08:05:54;99111.28;;;18.67;58.50
38880;BME280;25887;30.194;-97.880;2023-04-10T08:08:21;99108.66;;;18.67;58.88
38880;BME280;25887;30.194;-97.880;2023-04-10T08:10:47;99099.22;;;18.61;58.69
38880;BME280;25887;30.194;-97.880;2023-04-10T08:13:13;99103.66;;;18.56;58.55
38880;BME280;25887;30.194;-97.880;2023-04-10T08:15:40;99115.03;;;18.50;58.45
38880;BME280;25887;30.194;-97.880;2023-04-10T08:18:06;99113.44;;;18.43;58.71
38880;BME280;25887;30.194;-97.880;2023-04-10T08:20:32;99111.81;;;18.39;58.54
38880;BME280;25887;30.194;-97.880;2023-04-10T08:23:01;99109.25;;;18.36;58.46
38880;BME280;25887;30.194;-97.880;2023-04-10T08:25:29;99113.69;;;18.32;58.52
38880;BME280;25887;30.194;-97.880;2023-04-10T08:27:55;99108.53;;;18.29;58.75
38880;BME280;25887;30.194;-97.880;2023-04-10T08:30:23;99102.53;;;18.26;58.86
38880;BME280;25887;30.194;-97.880;2023-04-10T08:32:49;99105.16;;;18.24;58.57
38880;BME280;25887;30.194;-97.880;2023-04-10T08:35:16;99094.84;;;18.21;58.86
38880;BME280;25887;30.194;-97.880;2023-04-10T08:37:42;99088.75;;;18.22;59.09
38880;BME280;25887;30.194;-97.880;2023-04-10T08:40:08;99089.63;;;18.21;58.94
38880;BME280;25887;30.194;-97.880;2023-04-10T08:42:35;99093.94;;;18.22;58.79
38880;BME280;25887;30.194;-97.880;2023-04-10T08:45:02;99087.88;;;18.20;58.96
38880;BME280;25887;30.194;-97.880;2023-04-10T08:47:34;99093.09;;;18.20;58.83
38880;BME280;25887;30.194;-97.880;2023-04-10T08:50:05;99096.59;;;18.19;58.77
38880;BME280;25887;30.194;-97.880;2023-04-10T08:52:33;99098.38;;;18.17;58.89
38880;BME280;25887;30.194;-97.880;2023-04-10T08:55:04;99097.50;;;18.17;59.17
38880;BME280;25887;30.194;-97.880;2023-04-10T08:57:32;99086.28;;;18.13;58.88
38880;BME280;25887;30.194;-97.880;2023-04-10T08:59:58;99083.75;;;18.10;59.11
38880;BME280;25887;30.194;-97.880;2023-04-10T09:02:25;99084.66;;;18.09;58.95
38880;BME280;25887;30.194;-97.880;2023-04-10T09:04:52;99086.47;;;18.04;58.95
38880;BME280;25887;30.194;-97.880;2023-04-10T09:07:22;99094.34;;;18.01;59.01
38880;BME280;25887;30.194;-97.880;2023-04-10T09:09:48;99098.72;;;17.99;59.11
38880;BME280;25887;30.194;-97.880;2023-04-10T09:12:15;99091.88;;;17.93;59.02
38880;BME280;25887;30.194;-97.880;2023-04-10T09:14:42;99098.00;;;17.91;58.98
38880;BME280;25887;30.194;-97.880;2023-04-10T09:19:39;99105.91;;;17.85;58.96
38880;BME280;25887;30.194;-97.880;2023-04-10T09:22:05;99107.69;;;17.83;58.97
38880;BME280;25887;30.194;-97.880;2023-04-10T09:24:38;99109.44;;;17.80;58.98
38880;BME280;25887;30.194;-97.880;2023-04-10T09:27:06;99106.00;;;17.78;59.09
38880;BME280;25887;30.194;-97.880;2023-04-10T09:29:46;99101.69;;;17.77;59.05
38880;BME280;25887;30.194;-97.880;2023-04-10T09:32:41;99107.78;;;17.76;58.89
38880;BME280;25887;30.194;-97.880;2023-04-10T09:35:14;99104.44;;;17.68;59.10
38880;BME280;25887;30.194;-97.880;2023-04-10T09:37:43;99113.16;;;17.64;59.06
38880;BME280;25887;30.194;-97.880;2023-04-10T09:40:22;99120.91;;;17.66;58.92
38880;BME280;25887;30.194;-97.880;2023-04-10T09:42:50;99119.28;;;17.59;59.12
38880;BME280;25887;30.194;-97.880;2023-04-10T09:45:16;99109.84;;;17.54;59.03
38880;BME280;25887;30.194;-97.880;2023-04-10T09:48:02;99113.31;;;17.55;59.09
38880;BME280;25887;30.194;-97.880;2023-04-10T09:50:38;99115.97;;;17.50;59.09
38880;BME280;25887;30.194;-97.880;2023-04-10T09:53:18;99123.78;;;17.49;59.24
38880;BME280;25887;30.194;-97.880;2023-04-10T09:55:47;99120.44;;;17.44;59.15
38880;BME280;25887;30.194;-97.880;2023-04-10T09:58:14;99123.03;;;17.42;59.25
38880;BME280;25887;30.194;-97.880;2023-04-10T10:00:43;99135.19;;;17.40;59.46
38880;BME280;25887;30.194;-97.880;2023-04-10T10:03:12;99133.50;;;17.38;59.37
38880;BME280;25887;30.194;-97.880;2023-04-10T10:05:41;99129.19;;;17.35;59.32
38880;BME280;25887;30.194;-97.880;2023-04-10T10:08:11;99127.50;;;17.33;59.33
38880;BME280;25887;30.194;-97.880;2023-04-10T10:10:43;99131.03;;;17.30;59.34
38880;BME280;25887;30.194;-97.880;2023-04-10T10:13:15;99131.91;;;17.29;59.29
38880;BME280;25887;30.194;-97.880;2023-04-10T10:15:51;99123.25;;;17.27;59.33
38880;BME280;25887;30.194;-97.880;2023-04-10T10:18:43;99128.44;;;17.27;59.24
38880;BME280;25887;30.194;-97.880;2023-04-10T10:21:10;99130.25;;;17.23;59.56
38880;BME280;25887;30.194;-97.880;2023-04-10T10:23:39;99132.91;;;17.20;59.37
38880;BME280;25887;30.194;-97.880;2023-04-10T10:26:09;99141.56;;;17.18;59.45
38880;BME280;25887;30.194;-97.880;2023-04-10T10:28:36;99147.66;;;17.17;59.62
38880;BME280;25887;30.194;-97.880;2023-04-10T10:31:06;99148.53;;;17.16;59.59
38880;BME280;25887;30.194;-97.880;2023-04-10T10:33:35;99139.06;;;17.12;59.52
38880;BME280;25887;30.194;-97.880;2023-04-10T10:36:03;99144.25;;;17.12;59.47
38880;BME280;25887;30.194;-97.880;2023-04-10T10:38:30;99145.16;;;17.09;59.66
38880;BME280;25887;30.194;-97.880;2023-04-10T10:43:44;99151.19;;;17.11;59.67
38880;BME280;25887;30.194;-97.880;2023-04-10T10:46:13;99149.38;;;17.18;59.33
38880;BME280;25887;30.194;-97.880;2023-04-10T10:48:57;99152.03;;;17.13;59.38
38880;BME280;25887;30.194;-97.880;2023-04-10T10:51:48;99159.81;;;17.12;59.48
38880;BME280;25887;30.194;-97.880;2023-04-10T10:54:31;99151.22;;;17.10;59.66
38880;BME280;25887;30.194;-97.880;2023-04-10T10:56:58;99153.88;;;17.07;59.43
38880;BME280;25887;30.194;-97.880;2023-04-10T11:02:16;99155.69;;;17.00;59.66
38880;BME280;25887;30.194;-97.880;2023-04-10T11:04:47;99150.50;;;17.00;59.67
38880;BME280;25887;30.194;-97.880;2023-04-10T11:07:14;99153.13;;;16.97;59.63
38880;BME280;25887;30.194;-97.880;2023-04-10T11:09:52;99143.59;;;16.99;59.63
38880;BME280;25887;30.194;-97.880;2023-04-10T11:12:21;99145.38;;;16.94;59.73
38880;BME280;25887;30.194;-97.880;2023-04-10T11:14:59;99144.50;;;16.96;59.69
38880;BME280;25887;30.194;-97.880;2023-04-10T11:17:51;99147.94;;;16.97;59.65
38880;BME280;25887;30.194;-97.880;2023-04-10T11:20:19;99149.72;;;16.93;59.81
38880;BME280;25887;30.194;-97.880;2023-04-10T11:23:11;99155.75;;;16.97;59.66
38880;BME280;25887;30.194;-97.880;2023-04-10T11:25:50;99161.75;;;16.99;59.77
38880;BME280;25887;30.194;-97.880;2023-04-10T11:28:34;99159.13;;;17.01;59.84
38880;BME280;25887;30.194;-97.880;2023-04-10T11:31:16;99155.63;;;17.03;59.74
38880;BME280;25887;30.194;-97.880;2023-04-10T11:34:01;99153.88;;;17.05;60.01
38880;BME280;25887;30.194;-97.880;2023-04-10T11:36:31;99155.53;;;17.11;59.76
38880;BME280;25887;30.194;-97.880;2023-04-10T11:41:40;99148.66;;;17.08;59.99
38880;BME280;25887;30.194;-97.880;2023-04-10T11:44:09;99159.88;;;17.09;60.08
38880;BME280;25887;30.194;-97.880;2023-04-10T11:46:41;99157.31;;;17.07;60.18
38880;BME280;25887;30.194;-97.880;2023-04-10T11:49:09;99168.56;;;17.08;60.02
38880;BME280;25887;30.194;-97.880;2023-04-10T11:51:36;99176.38;;;17.06;60.26
38880;BME280;25887;30.194;-97.880;2023-04-10T11:54:26;99187.63;;;17.07;60.08
38880;BME280;25887;30.194;-97.880;2023-04-10T11:57:01;99183.31;;;17.04;60.27
38880;BME280;25887;30.194;-97.880;2023-04-10T11:59:29;99186.84;;;17.00;60.30
38880;BME280;25887;30.194;-97.880;2023-04-10T12:02:10;99179.03;;;17.02;60.12
38880;BME280;25887;30.194;-97.880;2023-04-10T12:04:39;99180.81;;;16.98;60.38
38880;BME280;25887;30.194;-97.880;2023-04-10T12:07:06;99180.78;;;16.99;60.61
38880;BME280;25887;30.194;-97.880;2023-04-10T12:09:33;99182.53;;;16.99;60.48
38880;BME280;25887;30.194;-97.880;2023-04-10T12:12:04;99185.06;;;17.02;60.47
38880;BME280;25887;30.194;-97.880;2023-04-10T12:14:38;99191.13;;;17.03;60.44
38880;BME280;25887;30.194;-97.880;2023-04-10T12:17:06;99188.50;;;17.04;60.49
38880;BME280;25887;30.194;-97.880;2023-04-10T12:19:33;99185.03;;;17.05;60.50
38880;BME280;25887;30.194;-97.880;2023-04-10T12:22:02;99191.09;;;17.06;60.51
38880;BME280;25887;30.194;-97.880;2023-04-10T12:24:44;99198.81;;;17.10;60.50
38880;BME280;25887;30.194;-97.880;2023-04-10T12:27:25;99201.38;;;17.12;60.58
38880;BME280;25887;30.194;-97.880;2023-04-10T12:29:52;99191.00;;;17.13;60.58
38880;BME280;25887;30.194;-97.880;2023-04-10T12:32:19;99200.50;;;17.14;60.55
38880;BME280;25887;30.194;-97.880;2023-04-10T12:34:55;99203.88;;;17.19;60.61
38880;BME280;25887;30.194;-97.880;2023-04-10T12:38:04;99197.81;;;17.20;60.69
38880;BME280;25887;30.194;-97.880;2023-04-10T12:40:12;99195.16;;;17.23;60.63
38880;BME280;25887;30.194;-97.880;2023-04-10T12:42:41;99198.59;;;17.25;60.92
38880;BME280;25887;30.194;-97.880;2023-04-10T12:45:08;99198.56;;;17.29;60.96
38880;BME280;25887;30.194;-97.880;2023-04-10T12:47:45;99201.97;;;17.32;60.86
38880;BME280;25887;30.194;-97.880;2023-04-10T12:50:16;99199.34;;;17.34;60.83
38880;BME280;25887;30.194;-97.880;2023-04-10T12:52:45;99197.63;;;17.36;61.04
38880;BME280;25887;30.194;-97.880;2023-04-10T12:55:18;99196.66;;;17.40;61.12
38880;BME280;25887;30.194;-97.880;2023-04-10T12:57:47;99198.38;;;17.41;61.06
38880;BME280;25887;30.194;-97.880;2023-04-10T13:00:16;99191.41;;;17.43;61.09
38880;BME280;25887;30.194;-97.880;2023-04-10T13:02:43;99200.91;;;17.47;60.93
38880;BME280;25887;30.194;-97.880;2023-04-10T13:05:10;99212.13;;;17.49;61.31
38880;BME280;25887;30.194;-97.880;2023-04-10T13:07:37;99230.28;;;17.52;61.25
38880;BME280;25887;30.194;-97.880;2023-04-10T13:10:04;99230.25;;;17.53;61.35
38880;BME280;25887;30.194;-97.880;2023-04-10T13:12:30;99231.91;;;17.58;61.19
38880;BME280;25887;30.194;-97.880;2023-04-10T13:14:57;99231.91;;;17.59;61.41
38880;BME280;25887;30.194;-97.880;2023-04-10T13:17:24;99244.00;;;17.62;61.35